sensor_id;sensor_type;location;lat;lon;timestamp;pressure;altitude;pressure_sealevel;temperature;humidity
54628;BME280;40525;55.926;21.066;2022-07-01T00:02:02;101632.20;;;23.07;74.88
54628;BME280;40525;55.926;21.066;2022-07-01T00:04:29;101633.86;;;23.14;74.96
54628;BME280;40525;55.926;21.066;2022-07-01T00:06:57;101621.60;;;23.21;74.95
54628;BME280;40525;55.926;21.066;2022-07-01T00:09:24;101624.77;;;23.26;74.69
54628;BME280;40525;55.926;21.066;2022-07-01T00:11:51;101623.77;;;23.27;74.52
54628;BME280;40525;55.926;21.066;2022-07-01T00:14:17;101616.06;;;23.28;74.84
54628;BME280;40525;55.926;21.066;2022-07-01T00:16:44;101591.56;;;23.31;75.08
54628;BME280;40525;55.926;21.066;2022-07-01T00:19:11;101582.52;;;23.32;75.23
54628;BME280;40525;55.926;21.066;2022-07-01T00:21:37;101551.90;;;23.33;74.96
54628;BME280;40525;55.926;21.066;2022-07-01T00:24:05;101533.38;;;23.25;74.60
54628;BME280;40525;55.926;21.066;2022-07-01T00:26:32;101523.19;;;23.13;74.64
54628;BME280;40525;55.926;21.066;2022-07-01T00:28:59;101509.90;;;23.06;75.02
54628;BME280;40525;55.926;21.066;2022-07-01T00:31:25;101498.42;;;23.04;75.64
54628;BME280;40525;55.926;21.066;2022-07-01T00:33:52;101479.67;;;23.08;76.08
54628;BME280;40525;55.926;21.066;2022-07-01T00:36:18;101473.75;;;23.14;76.36
54628;BME280;40525;55.926;21.066;2022-07-01T00:38:45;101458.83;;;23.15;76.17
54628;BME280;40525;55.926;21.066;2022-07-01T00:41:11;101440.49;;;23.15;75.87
54628;BME280;40525;55.926;21.066;2022-07-01T00:43:38;101461.77;;;23.12;75.87
54628;BME280;40525;55.926;21.066;2022-07-01T00:46:06;101486.27;;;23.09;75.99
54628;BME280;40525;55.926;21.066;2022-07-01T00:48:34;101480.05;;;23.09;76.29
54628;BME280;40525;55.926;21.066;2022-07-01T00:51:02;101482.11;;;23.11;76.48
54628;BME280;40525;55.926;21.066;2022-07-01T00:53:29;101468.88;;;23.13;76.64
54628;BME280;40525;55.926;21.066;2022-07-01T00:55:56;101464.00;;;23.13;76.73
54628;BME280;40525;55.926;21.066;2022-07-01T00:58:29;101456.98;;;23.16;76.74
54628;BME280;40525;55.926;21.066;2022-07-01T01:00:55;101446.93;;;23.18;76.54
54628;BME280;40525;55.926;21.066;2022-07-01T01:03:22;101440.08;;;23.19;76.27
54628;BME280;40525;55.926;21.066;2022-07-01T01:05:49;101442.47;;;23.13;76.25
54628;BME280;40525;55.926;21.066;2022-07-01T01:08:16;101433.52;;;23.12;76.69
54628;BME280;40525;55.926;21.066;2022-07-01T01:10:43;101436.45;;;23.15;76.92
54628;BME280;40525;55.926;21.066;2022-07-01T01:13:10;101427.04;;;23.15;77.00
54628;BME280;40525;55.926;21.066;2022-07-01T01:15:38;101421.02;;;23.17;77.05
54628;BME280;40525;55.926;21.066;2022-07-01T01:18:06;101414.42;;;23.15;76.83
54628;BME280;40525;55.926;21.066;2022-07-01T01:20:37;101422.76;;;23.12;76.59
54628;BME280;40525;55.926;21.066;2022-07-01T01:23:04;101428.93;;;23.09;76.80
54628;BME280;40525;55.926;21.066;2022-07-01T01:25:32;101421.20;;;23.10;77.00
54628;BME280;40525;55.926;21.066;2022-07-01T01:28:00;101429.64;;;23.11;77.15
54628;BME280;40525;55.926;21.066;2022-07-01T01:30:27;101442.47;;;23.13;77.25
54628;BME280;40525;55.926;21.066;2022-07-01T01:32:54;101447.98;;;23.11;77.22
54628;BME280;40525;55.926;21.066;2022-07-01T01:35:21;101437.84;;;23.09;77.09
54628;BME280;40525;55.926;21.066;2022-07-01T01:37:48;101426.50;;;23.00;76.97
54628;BME280;40525;55.926;21.066;2022-07-01T01:40:15;101420.53;;;22.96;76.85
54628;BME280;40525;55.926;21.066;2022-07-01T01:42:43;101432.42;;;22.94;77.08
54628;BME280;40525;55.926;21.066;2022-07-01T01:45:10;101475.59;;;22.92;77.20
54628;BME280;40525;55.926;21.066;2022-07-01T01:47:38;101473.06;;;22.85;77.25
54628;BME280;40525;55.926;21.066;2022-07-01T01:50:06;101437.63;;;22.80;77.42
54628;BME280;40525;55.926;21.066;2022-07-01T01:52:34;101445.11;;;22.76;77.46
54628;BME280;40525;55.926;21.066;2022-07-01T01:55:04;101440.14;;;22.72;77.20
54628;BME280;40525;55.926;21.066;2022-07-01T01:57:31;101459.37;;;22.67;77.07
54628;BME280;40525;55.926;21.066;2022-07-01T01:59:57;101474.31;;;22.60;77.02
54628;BME280;40525;55.926;21.066;2022-07-01T02:02:24;101454.27;;;22.58;77.36
54628;BME280;40525;55.926;21.066;2022-07-01T02:04:51;101457.05;;;22.63;77.62
54628;BME280;40525;55.926;21.066;2022-07-01T02:07:17;101461.68;;;22.66;77.55
54628;BME280;40525;55.926;21.066;2022-07-01T02:09:44;101453.39;;;22.64;77.36
54628;BME280;40525;55.926;21.066;2022-07-01T02:12:12;101457.43;;;22.64;77.21
54628;BME280;40525;55.926;21.066;2022-07-01T02:14:39;101456.42;;;22.65;77.03
54628;BME280;40525;55.926;21.066;2022-07-01T02:17:06;101471.84;;;22.63;76.94
54628;BME280;40525;55.926;21.066;2022-07-01T02:19:32;101467.09;;;22.60;77.12
54628;BME280;40525;55.926;21.066;2022-07-01T02:21:59;101495.54;;;22.63;77.27
54628;BME280;40525;55.926;21.066;2022-07-01T02:24:26;101503.38;;;22.60;77.21
54628;BME280;40525;55.926;21.066;2022-07-01T02:26:53;101520.64;;;22.58;77.18
54628;BME280;40525;55.926;21.066;2022-07-01T02:29:19;101535.67;;;22.55;76.88
54628;BME280;40525;55.926;21.066;2022-07-01T02:31:46;101541.44;;;22.50;76.87
54628;BME280;40525;55.926;21.066;2022-07-01T02:34:13;101534.84;;;22.49;76.89
54628;BME280;40525;55.926;21.066;2022-07-01T02:36:39;101535.06;;;22.51;77.04
54628;BME280;40525;55.926;21.066;2022-07-01T02:39:06;101543.41;;;22.48;76.98
54628;BME280;40525;55.926;21.066;2022-07-01T02:41:32;101532.77;;;22.47;77.15
54628;BME280;40525;55.926;21.066;2022-07-01T02:44:01;101530.94;;;22.47;77.14
54628;BME280;40525;55.926;21.066;2022-07-01T02:46:27;101534.14;;;22.41;76.91
54628;BME280;40525;55.926;21.066;2022-07-01T02:48:54;101546.13;;;22.37;76.85
54628;BME280;40525;55.926;21.066;2022-07-01T02:51:20;101544.78;;;22.37;76.77
54628;BME280;40525;55.926;21.066;2022-07-01T02:53:47;101556.73;;;22.33;76.73
54628;BME280;40525;55.926;21.066;2022-07-01T02:56:14;101567.03;;;22.28;76.84
54628;BME280;40525;55.926;21.066;2022-07-01T02:58:40;101570.78;;;22.19;77.22
54628;BME280;40525;55.926;21.066;2022-07-01T03:01:07;101565.06;;;22.18;77.40
54628;BME280;40525;55.926;21.066;2022-07-01T03:03:34;101563.48;;;22.16;77.40
54628;BME280;40525;55.926;21.066;2022-07-01T03:06:00;101565.56;;;22.12;77.45
54628;BME280;40525;55.926;21.066;2022-07-01T03:08:27;101557.62;;;22.11;77.27
54628;BME280;40525;55.926;21.066;2022-07-01T03:10:53;101563.85;;;22.06;77.20
54628;BME280;40525;55.926;21.066;2022-07-01T03:13:20;101555.30;;;22.06;77.26
54628;BME280;40525;55.926;21.066;2022-07-01T03:15:46;101558.24;;;22.09;77.51
54628;BME280;40525;55.926;21.066;2022-07-01T03:18:13;101561.66;;;22.11;77.65
54628;BME280;40525;55.926;21.066;2022-07-01T03:20:40;101558.70;;;22.14;77.79
54628;BME280;40525;55.926;21.066;2022-07-01T03:23:07;101556.00;;;22.19;77.82
54628;BME280;40525;55.926;21.066;2022-07-01T03:25:34;101553.70;;;22.20;77.75
54628;BME280;40525;55.926;21.066;2022-07-01T03:28:02;101560.91;;;22.20;77.49
54628;BME280;40525;55.926;21.066;2022-07-01T03:30:29;101555.05;;;22.15;77.27
54628;BME280;40525;55.926;21.066;2022-07-01T03:32:56;101554.33;;;22.13;77.18
54628;BME280;40525;55.926;21.066;2022-07-01T03:35:23;101553.09;;;22.11;77.17
54628;BME280;40525;55.926;21.066;2022-07-01T03:38:03;101539.44;;;22.09;77.27
54628;BME280;40525;55.926;21.066;2022-07-01T03:40:32;101536.36;;;22.13;77.47
54628;BME280;40525;55.926;21.066;2022-07-01T03:42:59;101532.94;;;22.17;77.43
54628;BME280;40525;55.926;21.066;2022-07-01T03:45:26;101539.30;;;22.21;77.35
54628;BME280;40525;55.926;21.066;2022-07-01T03:47:52;101537.68;;;22.25;77.17
54628;BME280;40525;55.926;21.066;2022-07-01T03:50:23;101518.03;;;22.24;76.90
54628;BME280;40525;55.926;21.066;2022-07-01T03:52:51;101530.03;;;22.26;76.67
54628;BME280;40525;55.926;21.066;2022-07-01T03:55:36;101516.82;;;22.28;76.65
54628;BME280;40525;55.926;21.066;2022-07-01T03:58:04;101528.30;;;22.30;76.53
54628;BME280;40525;55.926;21.066;2022-07-01T04:00:33;101541.61;;;22.32;76.61
54628;BME280;40525;55.926;21.066;2022-07-01T04:03:02;101544.30;;;22.32;76.53
54628;BME280;40525;55.926;21.066;2022-07-01T04:05:29;101539.55;;;22.30;76.41
54628;BME280;40525;55.926;21.066;2022-07-01T04:07:59;101551.26;;;22.29;76.19
54628;BME280;40525;55.926;21.066;2022-07-01T04:10:25;101543.81;;;22.27;76.10
54628;BME280;40525;55.926;21.066;2022-07-01T04:12:52;101549.55;;;22.22;76.21
54628;BME280;40525;55.926;21.066;2022-07-01T04:15:19;101549.89;;;22.23;76.48
54628;BME280;40525;55.926;21.066;2022-07-01T04:17:45;101567.73;;;22.24;76.48
54628;BME280;40525;55.926;21.066;2022-07-01T04:20:12;101578.40;;;22.26;76.53
54628;BME280;40525;55.926;21.066;2022-07-01T04:22:38;101562.48;;;22.22;76.44
54628;BME280;40525;55.926;21.066;2022-07-01T04:25:06;101558.11;;;22.21;76.37
54628;BME280;40525;55.926;21.066;2022-07-01T04:27:33;101568.36;;;22.16;76.14
54628;BME280;40525;55.926;21.066;2022-07-01T04:30:00;101571.56;;;22.10;76.31
54628;BME280;40525;55.926;21.066;2022-07-01T04:32:28;101582.54;;;22.07;76.51
54628;BME280;40525;55.926;21.066;2022-07-01T04:34:56;101598.77;;;22.06;76.65
54628;BME280;40525;55.926;21.066;2022-07-01T04:37:23;101615.01;;;22.04;76.73
54628;BME280;40525;55.926;21.066;2022-07-01T04:39:50;101621.49;;;22.07;76.97
54628;BME280;40525;55.926;21.066;2022-07-01T04:42:16;101618.42;;;22.12;77.05
54628;BME280;40525;55.926;21.066;2022-07-01T04:44:45;101616.23;;;22.11;77.00
54628;BME280;40525;55.926;21.066;2022-07-01T04:47:11;101630.52;;;22.17;76.89
54628;BME280;40525;55.926;21.066;2022-07-01T04:49:38;101647.63;;;22.22;76.50
54628;BME280;40525;55.926;21.066;2022-07-01T04:52:05;101660.70;;;22.27;76.53
54628;BME280;40525;55.926;21.066;2022-07-01T04:54:32;101671.72;;;22.29;76.49
54628;BME280;40525;55.926;21.066;2022-07-01T04:56:59;101664.23;;;22.33;76.61
54628;BME280;40525;55.926;21.066;2022-07-01T04:59:25;101669.14;;;22.39;76.67
54628;BME280;40525;55.926;21.066;2022-07-01T05:01:52;101656.78;;;22.42;76.27
54628;BME280;40525;55.926;21.066;2022-07-01T05:04:19;101649.10;;;22.37;76.01
54628;BME280;40525;55.926;21.066;2022-07-01T05:06:46;101644.08;;;22.38;75.70
54628;BME280;40525;55.926;21.066;2022-07-01T05:09:12;101637.97;;;22.42;75.46
54628;BME280;40525;55.926;21.066;2022-07-01T05:11:40;101626.97;;;22.45;75.20
54628;BME280;40525;55.926;21.066;2022-07-01T05:14:07;101628.19;;;22.52;75.14
54628;BME280;40525;55.926;21.066;2022-07-01T05:16:35;101632.20;;;22.64;75.13
54628;BME280;40525;55.926;21.066;2022-07-01T05:19:02;101637.77;;;22.77;75.02
54628;BME280;40525;55.926;21.066;2022-07-01T05:21:47;101639.80;;;22.91;74.92
54628;BME280;40525;55.926;21.066;2022-07-01T05:24:25;101653.61;;;22.97;74.91
54628;BME280;40525;55.926;21.066;2022-07-01T05:26:54;101660.06;;;23.00;74.59
54628;BME280;40525;55.926;21.066;2022-07-01T05:29:21;101661.20;;;23.04;74.68
54628;BME280;40525;55.926;21.066;2022-07-01T05:31:48;101674.23;;;23.03;74.85
54628;BME280;40525;55.926;21.066;2022-07-01T05:34:15;101678.89;;;23.00;75.37
54628;BME280;40525;55.926;21.066;2022-07-01T05:36:41;101674.99;;;23.05;75.62
54628;BME280;40525;55.926;21.066;2022-07-01T05:39:08;101664.81;;;23.14;75.68
54628;BME280;40525;55.926;21.066;2022-07-01T05:41:35;101637.34;;;23.26;75.54
54628;BME280;40525;55.926;21.066;2022-07-01T05:44:02;101618.10;;;23.36;75.29
54628;BME280;40525;55.926;21.066;2022-07-01T05:46:28;101598.59;;;23.44;75.21
54628;BME280;40525;55.926;21.066;2022-07-01T05:48:55;101593.39;;;23.52;75.20
54628;BME280;40525;55.926;21.066;2022-07-01T05:51:21;101583.08;;;23.57;75.23
54628;BME280;40525;55.926;21.066;2022-07-01T05:53:48;101605.08;;;23.62;74.80
54628;BME280;40525;55.926;21.066;2022-07-01T05:56:15;101591.25;;;23.61;74.34
54628;BME280;40525;55.926;21.066;2022-07-01T05:58:41;101594.66;;;23.63;74.01
54628;BME280;40525;55.926;21.066;2022-07-01T06:01:08;101575.09;;;23.61;73.76
54628;BME280;40525;55.926;21.066;2022-07-01T06:03:35;101574.96;;;23.63;73.69
54628;BME280;40525;55.926;21.066;2022-07-01T06:06:01;101578.00;;;23.64;73.66
54628;BME280;40525;55.926;21.066;2022-07-01T06:08:28;101574.33;;;23.65;73.80
54628;BME280;40525;55.926;21.066;2022-07-01T06:10:55;101563.05;;;23.65;73.84
54628;BME280;40525;55.926;21.066;2022-07-01T06:13:22;101556.28;;;23.71;73.98
54628;BME280;40525;55.926;21.066;2022-07-01T06:15:49;101557.16;;;23.71;73.85
54628;BME280;40525;55.926;21.066;2022-07-01T06:18:15;101550.76;;;23.72;73.69
54628;BME280;40525;55.926;21.066;2022-07-01T06:20:42;101558.58;;;23.75;73.55
54628;BME280;40525;55.926;21.066;2022-07-01T06:23:08;101560.64;;;23.77;73.54
54628;BME280;40525;55.926;21.066;2022-07-01T06:25:36;101557.35;;;23.80;73.54
54628;BME280;40525;55.926;21.066;2022-07-01T06:28:03;101566.02;;;23.83;73.51
54628;BME280;40525;55.926;21.066;2022-07-01T06:30:30;101567.49;;;23.82;73.33
54628;BME280;40525;55.926;21.066;2022-07-01T06:32:57;101571.80;;;23.78;72.98
54628;BME280;40525;55.926;21.066;2022-07-01T06:35:24;101571.80;;;23.78;72.72
54628;BME280;40525;55.926;21.066;2022-07-01T06:37:51;101560.40;;;23.75;72.50
54628;BME280;40525;55.926;21.066;2022-07-01T06:40:18;101569.98;;;23.73;72.48
54628;BME280;40525;55.926;21.066;2022-07-01T06:42:44;101569.98;;;23.73;72.58
54628;BME280;40525;55.926;21.066;2022-07-01T06:45:11;101568.98;;;23.74;72.63
54628;BME280;40525;55.926;21.066;2022-07-01T06:47:38;101562.36;;;23.78;72.48
54628;BME280;40525;55.926;21.066;2022-07-01T06:50:05;101573.22;;;23.83;72.25
54628;BME280;40525;55.926;21.066;2022-07-01T06:52:32;101579.78;;;23.90;72.05
54628;BME280;40525;55.926;21.066;2022-07-01T06:55:00;101581.84;;;23.92;71.73
54628;BME280;40525;55.926;21.066;2022-07-01T06:57:27;101582.34;;;23.91;71.81
54628;BME280;40525;55.926;21.066;2022-07-01T06:59:54;101590.30;;;23.93;71.78
54628;BME280;40525;55.926;21.066;2022-07-01T07:02:20;101576.27;;;23.99;71.90
54628;BME280;40525;55.926;21.066;2022-07-01T07:04:47;101594.31;;;24.08;71.72
54628;BME280;40525;55.926;21.066;2022-07-01T07:07:15;101585.67;;;24.14;71.57
54628;BME280;40525;55.926;21.066;2022-07-01T07:09:41;101585.36;;;24.23;71.31
54628;BME280;40525;55.926;21.066;2022-07-01T07:12:09;101586.78;;;24.27;71.08
54628;BME280;40525;55.926;21.066;2022-07-01T07:14:35;101579.53;;;24.28;71.23
54628;BME280;40525;55.926;21.066;2022-07-01T07:17:03;101579.27;;;24.31;71.35
54628;BME280;40525;55.926;21.066;2022-07-01T07:19:29;101582.89;;;24.35;71.40
54628;BME280;40525;55.926;21.066;2022-07-01T07:21:56;101568.22;;;24.34;71.11
54628;BME280;40525;55.926;21.066;2022-07-01T07:24:23;101570.98;;;24.38;71.02
54628;BME280;40525;55.926;21.066;2022-07-01T07:26:49;101563.11;;;24.41;70.73
54628;BME280;40525;55.926;21.066;2022-07-01T07:29:16;101566.02;;;24.43;70.44
54628;BME280;40525;55.926;21.066;2022-07-01T07:31:42;101558.56;;;24.41;70.14
54628;BME280;40525;55.926;21.066;2022-07-01T07:34:09;101570.35;;;24.40;70.00
54628;BME280;40525;55.926;21.066;2022-07-01T07:36:39;101576.02;;;24.37;69.96
54628;BME280;40525;55.926;21.066;2022-07-01T07:39:05;101579.85;;;24.34;69.67
54628;BME280;40525;55.926;21.066;2022-07-01T07:41:32;101574.52;;;24.29;69.36
54628;BME280;40525;55.926;21.066;2022-07-01T07:43:58;101587.28;;;24.27;69.18
54628;BME280;40525;55.926;21.066;2022-07-01T07:46:25;101589.16;;;24.21;69.13
54628;BME280;40525;55.926;21.066;2022-07-01T07:48:51;101581.95;;;24.21;69.09
54628;BME280;40525;55.926;21.066;2022-07-01T07:51:18;101579.13;;;24.23;69.21
54628;BME280;40525;55.926;21.066;2022-07-01T07:53:45;101577.34;;;24.27;69.41
54628;BME280;40525;55.926;21.066;2022-07-01T07:56:11;101583.77;;;24.36;69.42
54628;BME280;40525;55.926;21.066;2022-07-01T07:58:38;101578.78;;;24.41;69.18
54628;BME280;40525;55.926;21.066;2022-07-01T08:01:06;101569.14;;;24.48;68.91
54628;BME280;40525;55.926;21.066;2022-07-01T08:03:33;101568.34;;;24.58;68.62
54628;BME280;40525;55.926;21.066;2022-07-01T08:06:00;101557.85;;;24.74;68.24
54628;BME280;40525;55.926;21.066;2022-07-01T08:08:26;101574.67;;;24.91;67.93
54628;BME280;40525;55.926;21.066;2022-07-01T08:10:53;101571.30;;;25.13;67.43
54628;BME280;40525;55.926;21.066;2022-07-01T08:13:20;101571.38;;;25.37;67.16
54628;BME280;40525;55.926;21.066;2022-07-01T08:15:46;101575.69;;;25.57;67.01
54628;BME280;40525;55.926;21.066;2022-07-01T08:18:13;101574.58;;;25.74;66.15
54628;BME280;40525;55.926;21.066;2022-07-01T08:20:39;101571.40;;;25.88;65.63
54628;BME280;40525;55.926;21.066;2022-07-01T08:23:07;101573.66;;;26.06;64.98
54628;BME280;40525;55.926;21.066;2022-07-01T08:25:34;101577.77;;;26.24;64.50
54628;BME280;40525;55.926;21.066;2022-07-01T08:28:01;101569.78;;;26.37;64.16
54628;BME280;40525;55.926;21.066;2022-07-01T08:30:29;101582.50;;;26.40;63.56
54628;BME280;40525;55.926;21.066;2022-07-01T08:32:56;101573.36;;;26.37;63.28
54628;BME280;40525;55.926;21.066;2022-07-01T08:35:22;101570.44;;;26.35;63.03
54628;BME280;40525;55.926;21.066;2022-07-01T08:37:49;101580.16;;;26.41;62.77
54628;BME280;40525;55.926;21.066;2022-07-01T08:40:16;101576.50;;;26.46;62.54
54628;BME280;40525;55.926;21.066;2022-07-01T08:42:42;101569.58;;;26.62;62.21
54628;BME280;40525;55.926;21.066;2022-07-01T08:45:09;101557.86;;;26.75;61.79
54628;BME280;40525;55.926;21.066;2022-07-01T08:47:55;101561.68;;;26.86;61.56
54628;BME280;40525;55.926;21.066;2022-07-01T08:50:18;101560.90;;;26.94;60.85
54628;BME280;40525;55.926;21.066;2022-07-01T08:52:45;101552.34;;;27.07;60.40
54628;BME280;40525;55.926;21.066;2022-07-01T08:55:12;101550.06;;;27.20;59.98
54628;BME280;40525;55.926;21.066;2022-07-01T08:57:38;101547.48;;;27.33;59.91
54628;BME280;40525;55.926;21.066;2022-07-01T09:00:07;101550.97;;;27.47;59.67
54628;BME280;40525;55.926;21.066;2022-07-01T09:03:03;101550.61;;;27.46;59.68
54628;BME280;40525;55.926;21.066;2022-07-01T09:05:30;101552.65;;;27.48;59.39
54628;BME280;40525;55.926;21.066;2022-07-01T09:08:06;101554.97;;;27.39;59.29
54628;BME280;40525;55.926;21.066;2022-07-01T09:10:33;101545.59;;;27.29;59.38
54628;BME280;40525;55.926;21.066;2022-07-01T09:13:06;101545.19;;;27.24;59.45
54628;BME280;40525;55.926;21.066;2022-07-01T09:15:34;101548.71;;;27.20;59.44
54628;BME280;40525;55.926;21.066;2022-07-01T09:18:16;101549.73;;;27.19;59.17
54628;BME280;40525;55.926;21.066;2022-07-01T09:20:46;101546.98;;;27.11;59.10
54628;BME280;40525;55.926;21.066;2022-07-01T09:23:18;101551.86;;;27.07;59.14
54628;BME280;40525;55.926;21.066;2022-07-01T09:25:47;101540.82;;;27.05;59.22
54628;BME280;40525;55.926;21.066;2022-07-01T09:28:17;101547.29;;;27.08;59.21
54628;BME280;40525;55.926;21.066;2022-07-01T09:30:48;101540.37;;;27.10;59.23
54628;BME280;40525;55.926;21.066;2022-07-01T09:33:20;101543.25;;;27.12;59.29
54628;BME280;40525;55.926;21.066;2022-07-01T09:35:53;101535.48;;;27.13;59.22
54628;BME280;40525;55.926;21.066;2022-07-01T09:38:21;101534.46;;;27.14;59.35
54628;BME280;40525;55.926;21.066;2022-07-01T09:40:57;101537.39;;;27.21;59.29
54628;BME280;40525;55.926;21.066;2022-07-01T09:43:30;101536.78;;;27.27;59.23
54628;BME280;40525;55.926;21.066;2022-07-01T09:51:07;101535.86;;;27.44;58.67
54628;BME280;40525;55.926;21.066;2022-07-01T09:53:35;101529.64;;;27.52;58.32
54628;BME280;40525;55.926;21.066;2022-07-01T09:56:02;101534.84;;;27.72;57.94
54628;BME280;40525;55.926;21.066;2022-07-01T09:58:29;101539.66;;;27.90;57.30
54628;BME280;40525;55.926;21.066;2022-07-01T10:00:58;101530.08;;;28.08;57.10
54628;BME280;40525;55.926;21.066;2022-07-01T10:03:26;101540.30;;;28.35;56.61
54628;BME280;40525;55.926;21.066;2022-07-01T10:05:56;101536.40;;;28.46;56.12
54628;BME280;40525;55.926;21.066;2022-07-01T10:09:13;101536.98;;;28.53;55.78
54628;BME280;40525;55.926;21.066;2022-07-01T10:14:40;101528.33;;;28.74;55.23
54628;BME280;40525;55.926;21.066;2022-07-01T10:17:08;101527.63;;;28.89;54.30
54628;BME280;40525;55.926;21.066;2022-07-01T10:19:35;101527.63;;;28.93;54.35
54628;BME280;40525;55.926;21.066;2022-07-01T10:24:53;101516.43;;;29.16;54.11
54628;BME280;40525;55.926;21.066;2022-07-01T10:27:23;101516.05;;;29.32;53.57
54628;BME280;40525;55.926;21.066;2022-07-01T10:32:47;101512.23;;;29.53;52.55
54628;BME280;40525;55.926;21.066;2022-07-01T10:35:14;101509.83;;;29.63;52.55
54628;BME280;40525;55.926;21.066;2022-07-01T10:37:58;101508.25;;;29.72;52.14
54628;BME280;40525;55.926;21.066;2022-07-01T10:40:42;101508.76;;;29.84;52.03
54628;BME280;40525;55.926;21.066;2022-07-01T10:43:11;101508.30;;;30.04;51.76
54628;BME280;40525;55.926;21.066;2022-07-01T10:45:42;101518.40;;;30.22;51.19
54628;BME280;40525;55.926;21.066;2022-07-01T10:48:20;101508.45;;;30.38;51.51
54628;BME280;40525;55.926;21.066;2022-07-01T10:50:49;101511.49;;;30.39;50.87
54628;BME280;40525;55.926;21.066;2022-07-01T10:53:17;101510.17;;;30.30;51.00
54628;BME280;40525;55.926;21.066;2022-07-01T10:55:55;101509.82;;;30.29;51.24
54628;BME280;40525;55.926;21.066;2022-07-01T10:58:16;101514.25;;;30.34;50.78
54628;BME280;40525;55.926;21.066;2022-07-01T11:00:47;101505.34;;;30.41;50.85
54628;BME280;40525;55.926;21.066;2022-07-01T11:03:21;101511.20;;;30.52;50.20
54628;BME280;40525;55.926;21.066;2022-07-01T11:05:51;101503.05;;;30.71;50.28
54628;BME280;40525;55.926;21.066;2022-07-01T11:08:19;101502.17;;;30.98;49.43
54628;BME280;40525;55.926;21.066;2022-07-01T11:10:51;101499.03;;;31.20;49.21
54628;BME280;40525;55.926;21.066;2022-07-01T11:13:26;101492.45;;;31.44;48.52
54628;BME280;40525;55.926;21.066;2022-07-01T11:15:53;101494.25;;;31.67;46.29
54628;BME280;40525;55.926;21.066;2022-07-01T11:18:21;101493.05;;;31.80;45.68
54628;BME280;40525;55.926;21.066;2022-07-01T11:20:49;101494.50;;;31.98;45.36
54628;BME280;40525;55.926;21.066;2022-07-01T11:23:17;101493.97;;;32.13;44.88
54628;BME280;40525;55.926;21.066;2022-07-01T11:25:45;101496.97;;;32.18;44.88
54628;BME280;40525;55.926;21.066;2022-07-01T11:28:12;101501.27;;;32.27;44.80
54628;BME280;40525;55.926;21.066;2022-07-01T11:30:39;101497.75;;;32.34;44.57
54628;BME280;40525;55.926;21.066;2022-07-01T11:33:08;101502.19;;;32.35;44.57
54628;BME280;40525;55.926;21.066;2022-07-01T11:35:36;101516.52;;;32.33;44.02
54628;BME280;40525;55.926;21.066;2022-07-01T11:38:24;101509.19;;;32.22;44.07
54628;BME280;40525;55.926;21.066;2022-07-01T11:41:19;101503.27;;;32.19;44.17
54628;BME280;40525;55.926;21.066;2022-07-01T11:43:46;101500.55;;;32.29;44.70
54628;BME280;40525;55.926;21.066;2022-07-01T11:46:13;101501.97;;;32.47;44.50
54628;BME280;40525;55.926;21.066;2022-07-01T11:48:42;101509.18;;;32.55;44.48
54628;BME280;40525;55.926;21.066;2022-07-01T11:51:21;101506.26;;;32.56;44.12
54628;BME280;40525;55.926;21.066;2022-07-01T11:53:53;101505.50;;;32.62;44.55
54628;BME280;40525;55.926;21.066;2022-07-01T11:56:32;101507.31;;;32.77;44.23
54628;BME280;40525;55.926;21.066;2022-07-01T11:59:01;101500.41;;;32.81;43.60
54628;BME280;40525;55.926;21.066;2022-07-01T12:01:35;101499.23;;;32.79;44.00
54628;BME280;40525;55.926;21.066;2022-07-01T12:04:08;101510.08;;;32.83;44.22
54628;BME280;40525;55.926;21.066;2022-07-01T12:06:37;101501.13;;;32.79;43.98
54628;BME280;40525;55.926;21.066;2022-07-01T12:09:05;101505.04;;;32.70;43.97
54628;BME280;40525;55.926;21.066;2022-07-01T12:11:32;101509.59;;;32.62;44.01
54628;BME280;40525;55.926;21.066;2022-07-01T12:13:59;101509.06;;;32.52;44.28
54628;BME280;40525;55.926;21.066;2022-07-01T12:16:25;101513.73;;;32.47;44.36
54628;BME280;40525;55.926;21.066;2022-07-01T12:19:00;101515.09;;;32.47;44.59
54628;BME280;40525;55.926;21.066;2022-07-01T12:21:29;101513.54;;;32.49;44.49
54628;BME280;40525;55.926;21.066;2022-07-01T12:24:10;101513.28;;;32.55;44.47
54628;BME280;40525;55.926;21.066;2022-07-01T12:29:48;101509.28;;;32.61;44.52
54628;BME280;40525;55.926;21.066;2022-07-01T12:32:22;101500.03;;;32.62;44.50
54628;BME280;40525;55.926;21.066;2022-07-01T12:34:55;101503.41;;;32.64;44.46
54628;BME280;40525;55.926;21.066;2022-07-01T12:37:34;101507.23;;;32.70;44.64
54628;BME280;40525;55.926;21.066;2022-07-01T12:40:07;101503.67;;;32.70;44.51
54628;BME280;40525;55.926;21.066;2022-07-01T12:42:42;101513.58;;;32.60;44.87
54628;BME280;40525;55.926;21.066;2022-07-01T12:45:11;101516.16;;;32.57;45.01
54628;BME280;40525;55.926;21.066;2022-07-01T12:47:43;101505.23;;;32.57;45.33
54628;BME280;40525;55.926;21.066;2022-07-01T12:50:20;101511.03;;;32.58;45.54
54628;BME280;40525;55.926;21.066;2022-07-01T12:53:09;101504.25;;;32.65;45.57
54628;BME280;40525;55.926;21.066;2022-07-01T12:55:43;101507.50;;;32.75;45.81
54628;BME280;40525;55.926;21.066;2022-07-01T12:58:11;101503.44;;;32.82;45.54
54628;BME280;40525;55.926;21.066;2022-07-01T13:00:40;101495.43;;;33.08;45.66
54628;BME280;40525;55.926;21.066;2022-07-01T13:03:08;101486.25;;;33.51;45.31
54628;BME280;40525;55.926;21.066;2022-07-01T13:05:37;101483.72;;;33.98;44.96